createdAt,value
2019-03-03T00:01:59.254Z,83.79
2019-03-03T00:04:33.463Z,84.16
2019-03-03T00:07:04.534Z,83.89
2019-03-03T00:09:37.108Z,83.84
2019-03-03T00:12:09.783Z,83.76
2019-03-03T00:14:39.610Z,83.76
2019-03-03T00:17:09.841Z,83.77
2019-03-03T00:19:39.947Z,83.67
2019-03-03T00:22:10.349Z,83.67
2019-03-03T00:24:40.920Z,83.66
2019-03-03T00:27:10.948Z,84.22
2019-03-03T00:29:41.271Z,84.22
2019-03-03T00:32:11.480Z,84.22
2019-03-03T00:34:41.916Z,84.22
2019-03-03T00:37:19.472Z,84.53
2019-03-03T00:39:54.156Z,84.50
2019-03-03T00:42:57.919Z,84.44
2019-03-03T00:45:52.770Z,84.44
2019-03-03T00:48:45.519Z,84.65
2019-03-03T00:51:25.398Z,85.02
2019-03-03T00:54:32.369Z,85.05
2019-03-03T00:57:24.254Z,85.21
2019-03-03T01:00:17.937Z,85.59
2019-03-03T01:03:01.574Z,85.84
2019-03-03T01:06:02.087Z,85.74
2019-03-03T01:08:57.286Z,85.41
2019-03-03T01:11:52.165Z,85.56
2019-03-03T01:14:53.390Z,85.46
2019-03-03T01:17:34.728Z,85.46
2019-03-03T01:20:12.718Z,85.81
2019-03-03T01:23:03.245Z,85.81
2019-03-03T01:25:33.521Z,85.97
2019-03-03T01:28:03.362Z,85.97
2019-03-03T01:30:33.435Z,85.97
2019-03-03T01:33:03.769Z,85.97
2019-03-03T01:35:33.927Z,85.63
2019-03-03T01:38:03.768Z,85.63
2019-03-03T01:40:34.590Z,85.80
2019-03-03T01:43:04.329Z,85.81
2019-03-03T01:45:34.146Z,85.81
2019-03-03T01:48:04.171Z,85.69
2019-03-03T01:50:34.459Z,85.69
2019-03-03T01:53:04.076Z,85.60
2019-03-03T01:55:34.367Z,86.02
2019-03-03T01:58:04.514Z,86.02
2019-03-03T02:00:34.412Z,85.89
2019-03-03T02:03:05.258Z,85.72
2019-03-03T02:05:35.275Z,85.71
2019-03-03T02:08:05.435Z,85.43
2019-03-03T02:10:35.609Z,85.63
2019-03-03T02:13:05.352Z,85.63
2019-03-03T02:15:35.280Z,85.58
2019-03-03T02:18:05.148Z,85.70
2019-03-03T02:20:34.918Z,85.44
2019-03-03T02:23:05.956Z,85.50
2019-03-03T02:25:36.423Z,85.50
2019-03-03T02:28:06.198Z,85.67
2019-03-03T02:30:36.188Z,85.57
2019-03-03T02:33:05.892Z,85.76
2019-03-03T02:35:35.850Z,85.91
2019-03-03T02:38:05.866Z,85.78
2019-03-03T02:40:36.003Z,86.03
2019-03-03T02:43:06.009Z,86.01
2019-03-03T02:45:36.251Z,86.16
2019-03-03T02:48:05.807Z,86.16
2019-03-03T02:50:35.520Z,86.07
2019-03-03T02:53:05.392Z,86.07
2019-03-03T02:55:35.517Z,86.22
2019-03-03T02:58:05.487Z,86.22
2019-03-03T03:00:37.435Z,86.08
2019-03-03T03:03:10.321Z,86.08
2019-03-03T03:05:57.755Z,86.35
2019-03-03T03:08:46.334Z,86.35
2019-03-03T03:11:25.655Z,86.23
2019-03-03T03:14:04.871Z,86.73
2019-03-03T03:16:56.675Z,86.73
2019-03-03T03:19:32.356Z,86.33
2019-03-03T03:22:17.902Z,86.32
2019-03-03T03:25:04.356Z,86.28
2019-03-03T03:28:05.359Z,86.64
2019-03-03T03:31:03.197Z,86.36
2019-03-03T03:33:46.313Z,86.88
2019-03-03T03:36:38.109Z,86.88
2019-03-03T03:39:38.875Z,86.86
2019-03-03T03:42:26.311Z,86.86
2019-03-03T03:45:07.733Z,86.99
2019-03-03T03:47:48.250Z,86.84
2019-03-03T03:50:40.836Z,86.85
2019-03-03T03:53:21.403Z,86.63
2019-03-03T03:56:16.269Z,86.75
2019-03-03T03:59:12.431Z,86.88
2019-03-03T04:02:01.357Z,86.76
2019-03-03T04:04:40.314Z,86.83
2019-03-03T04:07:29.256Z,87.23
2019-03-03T04:10:07.208Z,86.59
2019-03-03T04:12:43.611Z,87.37
2019-03-03T04:15:34.294Z,87.75
2019-03-03T04:18:18.770Z,87.75
2019-03-03T04:21:19.273Z,86.87
2019-03-03T04:24:04.682Z,87.23
2019-03-03T04:27:05.447Z,87.27
2019-03-03T04:29:57.426Z,87.27
2019-03-03T04:32:35.723Z,87.51
2019-03-03T04:35:23.279Z,87.35
2019-03-03T04:38:20.811Z,87.35
2019-03-03T04:41:07.950Z,87.56
2019-03-03T04:43:59.454Z,87.56
2019-03-03T04:46:36.454Z,87.34
2019-03-03T04:49:23.548Z,87.34
2019-03-03T04:52:18.129Z,87.42
2019-03-03T04:55:06.946Z,87.59
2019-03-03T04:57:50.729Z,87.72
2019-03-03T05:00:39.466Z,87.76
2019-03-03T05:03:34.493Z,88.35
2019-03-03T05:06:21.555Z,88.35
2019-03-03T05:08:58.707Z,87.83
2019-03-03T05:12:21.146Z,87.83
2019-03-03T05:14:52.475Z,87.85
2019-03-03T05:17:29.176Z,87.91
2019-03-03T05:20:00.712Z,87.93
2019-03-03T05:22:30.516Z,88.14
2019-03-03T05:25:00.538Z,88.44
2019-03-03T05:27:30.428Z,88.44
2019-03-03T05:30:00.341Z,88.27
2019-03-03T05:32:29.994Z,88.41
2019-03-03T05:35:00.355Z,89.02
2019-03-03T05:37:30.281Z,88.40
2019-03-03T05:40:00.323Z,88.40
2019-03-03T05:42:30.279Z,88.69
2019-03-03T05:45:00.235Z,88.42
2019-03-03T05:47:30.213Z,88.61
2019-03-03T05:50:00.463Z,88.61
2019-03-03T05:52:30.463Z,88.98
2019-03-03T05:55:00.527Z,88.98
2019-03-03T05:57:30.669Z,88.74
2019-03-03T06:00:00.513Z,88.67
2019-03-03T06:02:30.500Z,88.82
2019-03-03T06:05:00.523Z,88.91
2019-03-03T06:07:30.574Z,89.02
2019-03-03T06:10:01.178Z,89.02
2019-03-03T06:12:31.461Z,89.12
2019-03-03T06:15:01.507Z,89.27
2019-03-03T06:17:31.569Z,89.40
2019-03-03T06:20:01.437Z,89.45
2019-03-03T06:22:31.315Z,89.53
2019-03-03T06:25:01.747Z,89.91
2019-03-03T06:27:31.806Z,89.84
2019-03-03T06:30:01.605Z,89.84
2019-03-03T06:32:31.547Z,89.73
2019-03-03T06:35:01.714Z,89.94
2019-03-03T06:37:31.546Z,89.84
2019-03-03T06:40:03.426Z,89.74
2019-03-03T06:42:33.428Z,90.12
2019-03-03T06:45:03.547Z,90.12
2019-03-03T06:47:33.418Z,89.96
2019-03-03T06:50:03.808Z,89.96
2019-03-03T06:52:33.571Z,89.83
2019-03-03T06:55:03.802Z,89.81
2019-03-03T06:57:33.633Z,89.94
2019-03-03T07:00:04.226Z,90.08
2019-03-03T07:02:34.110Z,89.92
2019-03-03T07:05:03.892Z,89.88
2019-03-03T07:07:33.778Z,89.59
2019-03-03T07:10:03.829Z,89.60
2019-03-03T07:12:33.818Z,90.04
2019-03-03T07:15:03.701Z,89.68
2019-03-03T07:17:33.635Z,89.68
2019-03-03T07:20:03.857Z,89.76
2019-03-03T07:22:33.726Z,89.65
2019-03-03T07:25:03.800Z,89.72
2019-03-03T07:27:33.849Z,89.73
2019-03-03T07:30:03.567Z,89.56
2019-03-03T07:32:35.068Z,89.48
2019-03-03T07:35:05.349Z,89.31
2019-03-03T07:37:35.260Z,89.31
2019-03-03T07:40:05.319Z,89.62
2019-03-03T07:42:34.948Z,89.88
2019-03-03T07:45:05.352Z,89.88
2019-03-03T07:47:35.421Z,89.55
2019-03-03T07:50:05.491Z,89.51
2019-03-03T07:52:35.203Z,89.39
2019-03-03T07:55:05.194Z,89.25
2019-03-03T07:57:34.966Z,88.80
2019-03-03T08:00:07.260Z,88.80
2019-03-03T08:02:36.857Z,89.05
2019-03-03T08:05:07.373Z,88.88
2019-03-03T08:07:37.404Z,88.93
2019-03-03T08:10:07.427Z,88.94
2019-03-03T08:12:37.104Z,88.80
2019-03-03T08:15:07.487Z,88.74
2019-03-03T08:17:37.366Z,88.59
2019-03-03T08:20:07.719Z,88.40
2019-03-03T08:22:37.941Z,88.28
2019-03-03T08:25:08.444Z,88.20
2019-03-03T08:27:39.233Z,87.75
2019-03-03T08:30:09.568Z,87.99
2019-03-03T08:32:39.746Z,87.97
2019-03-03T08:35:11.581Z,87.75
2019-03-03T08:37:41.560Z,87.84
2019-03-03T08:40:11.494Z,87.84
2019-03-03T08:43:00.509Z,87.49
2019-03-03T08:45:48.972Z,87.48
2019-03-03T08:48:44.041Z,87.01
2019-03-03T08:51:31.144Z,87.01
2019-03-03T08:54:29.032Z,86.32
2019-03-03T08:57:23.738Z,86.35
2019-03-03T09:00:03.786Z,85.79
2019-03-03T09:02:55.679Z,85.58
2019-03-03T09:05:56.523Z,85.65
2019-03-03T09:09:00.400Z,85.67
2019-03-03T09:12:07.302Z,85.56
2019-03-03T09:14:57.443Z,84.98
2019-03-03T09:17:37.737Z,84.77
2019-03-03T09:20:23.860Z,84.70
2019-03-03T09:23:11.047Z,84.70
2019-03-03T09:25:56.721Z,84.48
2019-03-03T09:28:32.159Z,84.03
2019-03-03T09:31:20.274Z,83.67
2019-03-03T09:34:12.864Z,83.23
2019-03-03T09:37:16.744Z,83.07
2019-03-03T09:40:09.446Z,83.34
2019-03-03T09:42:55.695Z,83.37
2019-03-03T09:45:53.615Z,82.51
2019-03-03T09:48:48.300Z,82.51
2019-03-03T09:51:35.958Z,82.88
2019-03-03T09:54:40.006Z,82.71
2019-03-03T09:57:34.579Z,82.77
2019-03-03T10:00:22.851Z,82.51
2019-03-03T10:03:17.677Z,82.53
2019-03-03T10:06:01.909Z,82.32
2019-03-03T10:08:37.669Z,82.16
2019-03-03T10:11:25.094Z,81.70
2019-03-03T10:13:59.699Z,81.70
2019-03-03T10:16:42.246Z,81.67
2019-03-03T10:19:24.842Z,81.50
2019-03-03T10:22:00.934Z,81.30
2019-03-03T10:25:07.781Z,80.91
2019-03-03T10:27:55.555Z,80.97
2019-03-03T10:30:50.280Z,80.86
2019-03-03T10:33:42.725Z,80.86
2019-03-03T10:36:46.615Z,80.08
2019-03-03T10:39:50.691Z,79.41
2019-03-03T10:42:35.059Z,79.21
2019-03-03T10:45:33.014Z,78.75
2019-03-03T10:48:20.164Z,77.92
2019-03-03T10:51:07.444Z,77.88
2019-03-03T10:53:59.923Z,77.88
2019-03-03T10:56:57.516Z,76.85
2019-03-03T10:59:43.563Z,77.37
2019-03-03T11:02:22.436Z,77.25
2019-03-03T11:05:23.219Z,76.72
2019-03-03T11:08:14.837Z,76.78
2019-03-03T11:11:01.366Z,77.08
2019-03-03T11:13:49.842Z,76.83
2019-03-03T11:16:30.831Z,76.62
2019-03-03T11:19:25.824Z,76.77
2019-03-03T11:22:12.945Z,76.82
2019-03-03T11:25:14.114Z,76.88
2019-03-03T11:28:01.139Z,76.58
2019-03-03T11:30:42.325Z,76.44
2019-03-03T11:33:36.749Z,75.96
2019-03-03T11:39:37.396Z,76.09
2019-03-03T11:42:34.789Z,76.09
2019-03-03T11:45:21.859Z,75.92
2019-03-03T11:48:16.266Z,75.81
2019-03-03T11:51:00.107Z,75.62
2019-03-03T11:53:44.879Z,75.38
2019-03-03T11:56:32.122Z,75.37
2019-03-03T11:59:26.316Z,74.95
2019-03-03T12:02:33.149Z,75.50
2019-03-03T12:05:15.245Z,75.61
2019-03-03T12:08:06.527Z,75.84
2019-03-03T12:10:57.961Z,75.60
2019-03-03T12:13:33.533Z,75.55
2019-03-03T12:16:25.101Z,75.36
2019-03-03T12:19:09.206Z,75.56
2019-03-03T12:22:00.846Z,75.00
2019-03-03T12:24:49.378Z,75.03
2019-03-03T12:27:33.635Z,74.97
2019-03-03T12:30:21.517Z,74.80
2019-03-03T12:33:28.041Z,74.47
2019-03-03T12:36:21.426Z,74.72
2019-03-03T12:39:00.144Z,74.59
2019-03-03T12:41:47.146Z,74.42
2019-03-03T12:44:40.700Z,74.59
2019-03-03T12:47:18.736Z,74.29
2019-03-03T12:50:16.436Z,74.34
2019-03-03T12:53:07.741Z,74.15
2019-03-03T12:55:47.609Z,74.07
2019-03-03T12:58:28.665Z,74.20
2019-03-03T13:01:23.893Z,74.13
2019-03-03T13:04:00.607Z,73.98
2019-03-03T13:06:51.726Z,74.18
2019-03-03T13:09:40.471Z,74.12
2019-03-03T13:12:31.900Z,73.84
2019-03-03T13:15:23.381Z,73.51
2019-03-03T13:18:03.058Z,73.43
2019-03-03T13:20:57.755Z,73.58
2019-03-03T13:24:02.924Z,73.47
2019-03-03T13:26:42.442Z,73.55
2019-03-03T13:29:47.584Z,73.48
2019-03-03T13:32:51.460Z,73.52
2019-03-03T13:35:48.982Z,73.42
2019-03-03T13:38:36.233Z,73.39
2019-03-03T13:41:20.777Z,73.20
2019-03-03T13:43:50.672Z,73.40
2019-03-03T13:46:20.292Z,72.95
2019-03-03T13:48:51.339Z,73.05
2019-03-03T13:51:21.139Z,72.87
2019-03-03T13:53:50.849Z,72.93
2019-03-03T13:56:20.666Z,72.29
2019-03-03T13:58:50.567Z,72.72
2019-03-03T14:01:20.196Z,72.71
2019-03-03T14:03:49.814Z,72.53
2019-03-03T14:06:19.823Z,72.45
2019-03-03T14:08:49.679Z,72.49
2019-03-03T14:11:28.117Z,72.42
2019-03-03T14:13:58.125Z,72.33
2019-03-03T14:16:28.226Z,72.40
2019-03-03T14:18:59.594Z,72.27
2019-03-03T14:21:29.634Z,72.37
2019-03-03T14:23:59.425Z,72.45
2019-03-03T14:26:29.563Z,72.39
2019-03-03T14:28:59.465Z,72.35
2019-03-03T14:31:29.253Z,72.55
2019-03-03T14:33:59.015Z,72.49
2019-03-03T14:36:28.465Z,72.58
2019-03-03T14:38:58.337Z,72.46
2019-03-03T14:41:28.983Z,72.66
2019-03-03T14:43:58.664Z,72.66
2019-03-03T14:46:28.505Z,72.75
2019-03-03T14:48:58.449Z,72.63
2019-03-03T14:51:28.658Z,72.98
2019-03-03T14:53:58.658Z,72.34
2019-03-03T14:56:31.855Z,72.34
2019-03-03T14:59:01.815Z,72.94
2019-03-03T15:01:31.383Z,72.94
2019-03-03T15:04:01.221Z,72.76
2019-03-03T15:06:31.320Z,72.51
2019-03-03T15:09:01.047Z,72.53
2019-03-03T15:11:30.713Z,71.97
2019-03-03T15:14:00.374Z,71.97
2019-03-03T15:16:30.298Z,72.03
2019-03-03T15:19:00.033Z,71.90
2019-03-03T15:21:29.980Z,71.64
2019-03-03T15:23:59.779Z,71.51
2019-03-03T15:26:29.754Z,71.51
2019-03-03T15:28:59.510Z,70.95
2019-03-03T15:31:37.473Z,70.95
2019-03-03T15:34:01.170Z,71.48
2019-03-03T15:36:31.536Z,71.27
2019-03-03T15:39:01.470Z,71.35
2019-03-03T15:41:31.414Z,71.80
2019-03-03T15:44:01.034Z,71.80
2019-03-03T15:46:30.799Z,71.54
2019-03-03T15:49:00.608Z,71.54
2019-03-03T15:51:30.430Z,71.71
2019-03-03T15:54:00.341Z,71.37
2019-03-03T15:56:30.151Z,71.37
2019-03-03T15:58:59.995Z,71.66
2019-03-03T16:01:30.221Z,71.81
2019-03-03T16:04:00.274Z,72.09
2019-03-03T16:06:30.166Z,72.09
2019-03-03T16:09:00.072Z,71.98
2019-03-03T16:11:30.805Z,72.06
2019-03-03T16:14:00.402Z,72.21
2019-03-03T16:16:30.071Z,72.34
2019-03-03T16:19:00.064Z,72.25
2019-03-03T16:21:29.664Z,72.27
2019-03-03T16:23:59.487Z,72.30
2019-03-03T16:26:29.973Z,72.29
2019-03-03T16:28:59.504Z,72.43
2019-03-03T16:31:29.164Z,72.52
2019-03-03T16:33:59.006Z,72.52
2019-03-03T16:36:29.720Z,72.62
2019-03-03T16:38:59.412Z,72.87
2019-03-03T16:41:29.327Z,72.82
2019-03-03T16:43:59.265Z,72.90
2019-03-03T16:46:29.221Z,72.91
2019-03-03T16:48:59.040Z,73.03
2019-03-03T16:51:30.019Z,73.05
2019-03-03T16:54:01.603Z,72.98
2019-03-03T16:56:31.630Z,72.88
2019-03-03T16:59:01.175Z,72.81
2019-03-03T17:01:30.837Z,72.90
2019-03-03T17:04:01.405Z,73.03
2019-03-03T17:06:32.178Z,73.07
2019-03-03T17:09:01.773Z,72.98
2019-03-03T17:11:31.503Z,72.98
2019-03-03T17:14:04.607Z,73.33
2019-03-03T17:16:35.514Z,73.08
2019-03-03T17:19:05.420Z,73.08
2019-03-03T17:21:37.324Z,73.10
2019-03-03T17:24:06.862Z,73.10
2019-03-03T17:26:42.361Z,73.07
2019-03-03T17:29:11.898Z,73.40
2019-03-03T17:31:41.555Z,73.78
2019-03-03T17:34:14.570Z,74.03
2019-03-03T17:36:45.491Z,73.91
2019-03-03T17:39:15.203Z,73.91
2019-03-03T17:41:45.212Z,74.06
2019-03-03T17:44:15.236Z,74.06
2019-03-03T17:46:47.158Z,73.93
2019-03-03T17:49:20.679Z,74.03
2019-03-03T17:51:50.304Z,74.12
2019-03-03T17:54:21.131Z,74.03
2019-03-03T17:56:53.833Z,74.12
2019-03-03T17:59:23.619Z,74.02
2019-03-03T18:01:55.804Z,74.11
2019-03-03T18:04:25.773Z,74.11
2019-03-03T18:06:55.356Z,74.19
2019-03-03T18:09:27.536Z,74.07
2019-03-03T18:11:57.419Z,73.93
2019-03-03T18:14:34.756Z,73.90
2019-03-03T18:17:04.394Z,73.90
2019-03-03T18:19:42.018Z,73.83
2019-03-03T18:22:11.946Z,73.78
2019-03-03T18:24:41.629Z,73.62
2019-03-03T18:27:15.925Z,73.56
2019-03-03T18:29:46.137Z,73.71
2019-03-03T18:32:19.586Z,73.77
2019-03-03T18:34:49.206Z,73.73
2019-03-03T18:37:18.924Z,73.78
2019-03-03T18:39:49.359Z,73.62
2019-03-03T18:42:20.431Z,73.73
2019-03-03T18:44:50.499Z,73.73
2019-03-03T18:47:20.451Z,73.62
2019-03-03T18:49:55.834Z,73.62
2019-03-03T18:52:24.898Z,73.67
2019-03-03T18:55:02.394Z,73.74
2019-03-03T18:57:36.554Z,73.60
2019-03-03T19:00:11.771Z,73.68
2019-03-03T19:02:41.472Z,73.59
2019-03-03T19:05:11.376Z,73.59
2019-03-03T19:07:41.627Z,73.51
2019-03-03T19:10:13.393Z,73.61
2019-03-03T19:12:43.271Z,73.60
2019-03-03T19:15:15.061Z,73.60
2019-03-03T19:17:44.837Z,73.46
2019-03-03T19:20:15.297Z,73.58
2019-03-03T19:22:45.012Z,73.58
2019-03-03T19:25:15.438Z,73.52
2019-03-03T19:27:48.554Z,73.52
2019-03-03T19:30:25.077Z,73.57
2019-03-03T19:33:09.279Z,73.65
2019-03-03T19:35:38.927Z,73.82
2019-03-03T19:38:11.426Z,73.97
2019-03-03T19:40:50.730Z,74.06
2019-03-03T19:43:22.487Z,74.26
2019-03-03T19:45:59.689Z,74.24
2019-03-03T19:48:49.164Z,74.36
2019-03-03T19:51:21.101Z,74.36
2019-03-03T19:53:50.867Z,74.49
2019-03-03T19:56:21.535Z,74.45
2019-03-03T19:58:51.318Z,74.62
2019-03-03T20:01:21.115Z,74.94
2019-03-03T20:03:50.852Z,75.16
2019-03-03T20:06:21.702Z,75.47
2019-03-03T20:08:51.377Z,75.82
2019-03-03T20:11:22.096Z,76.10
2019-03-03T20:13:51.869Z,76.35
2019-03-03T20:16:21.565Z,76.47
2019-03-03T20:18:51.227Z,76.73
2019-03-03T20:21:20.910Z,76.84
2019-03-03T20:23:51.081Z,76.75
2019-03-03T20:26:22.535Z,76.90
2019-03-03T20:28:53.764Z,77.00
2019-03-03T20:31:23.491Z,77.10
2019-03-03T20:33:53.254Z,77.11
2019-03-03T20:36:22.783Z,77.40
2019-03-03T20:38:53.774Z,77.71
2019-03-03T20:41:23.450Z,77.71
2019-03-03T20:43:55.802Z,77.60
2019-03-03T20:46:25.721Z,77.55
2019-03-03T20:48:58.767Z,77.50
2019-03-03T20:51:30.970Z,77.39
2019-03-03T20:54:00.845Z,77.22
2019-03-03T20:56:35.253Z,77.62
2019-03-03T20:59:05.576Z,77.62
2019-03-03T21:01:35.272Z,77.54
2019-03-03T21:04:05.257Z,77.45
2019-03-03T21:06:35.398Z,77.32
2019-03-03T21:09:06.798Z,77.24
2019-03-03T21:11:36.793Z,77.25
2019-03-03T21:14:06.986Z,77.41
2019-03-03T21:16:37.814Z,77.45
2019-03-03T21:19:08.779Z,77.42
2019-03-03T21:21:38.746Z,77.56
2019-03-03T21:24:08.510Z,77.41
2019-03-03T21:26:38.288Z,77.19
2019-03-03T21:29:08.870Z,77.55
2019-03-03T21:31:38.743Z,77.55
2019-03-03T21:34:10.197Z,77.66
2019-03-03T21:36:40.977Z,77.66
2019-03-03T21:39:10.939Z,77.57
2019-03-03T21:41:40.958Z,77.80
2019-03-03T21:44:11.595Z,78.19
2019-03-03T21:46:42.600Z,78.19
2019-03-03T21:49:14.606Z,78.24
2019-03-03T21:51:44.448Z,78.27
2019-03-03T21:54:14.577Z,78.08
2019-03-03T21:56:44.770Z,78.06
2019-03-03T21:59:14.783Z,78.10
2019-03-03T22:01:44.677Z,78.02
2019-03-03T22:04:14.722Z,78.07
2019-03-03T22:06:45.216Z,78.28
2019-03-03T22:09:14.996Z,78.28
2019-03-03T22:11:46.484Z,78.00
2019-03-03T22:14:15.967Z,77.83
2019-03-03T22:16:47.722Z,77.65
2019-03-03T22:19:17.189Z,77.87
2019-03-03T22:21:47.290Z,78.03
2019-03-03T22:24:16.972Z,78.18
2019-03-03T22:26:46.661Z,78.10
2019-03-03T22:29:16.376Z,78.14
2019-03-03T22:31:46.240Z,78.32
2019-03-03T22:34:15.974Z,78.09
2019-03-03T22:36:45.583Z,78.10
2019-03-03T22:39:16.312Z,78.07
2019-03-03T22:41:45.877Z,78.24
2019-03-03T22:44:15.491Z,78.18
2019-03-03T22:46:45.314Z,78.18
2019-03-03T22:49:14.879Z,78.32
2019-03-03T22:51:44.484Z,78.35
2019-03-03T22:54:14.247Z,78.30
2019-03-03T22:56:43.862Z,78.41
2019-03-03T22:59:13.510Z,78.49
2019-03-03T23:01:45.469Z,78.51
2019-03-03T23:04:33.423Z,77.96
2019-03-03T23:07:19.705Z,77.96
2019-03-03T23:10:37.790Z,78.44
2019-03-03T23:13:43.926Z,78.50
2019-03-03T23:16:49.043Z,78.57
2019-03-03T23:20:08.824Z,78.59
2019-03-03T23:23:40.376Z,78.45
2019-03-03T23:26:16.596Z,78.37
2019-03-03T23:28:41.517Z,78.49
2019-03-03T23:31:11.300Z,78.43
2019-03-03T23:33:41.283Z,78.28
2019-03-03T23:36:10.828Z,78.05
2019-03-03T23:38:40.477Z,78.75
2019-03-03T23:41:10.073Z,78.75
2019-03-03T23:43:39.684Z,78.50
2019-03-03T23:46:09.372Z,78.38
2019-03-03T23:48:39.242Z,78.42
2019-03-03T23:51:08.863Z,78.50
2019-03-03T23:53:38.572Z,78.54
2019-03-03T23:56:08.087Z,78.51
2019-03-03T23:58:37.620Z,78.47
